KBDH

Details ICAO KBDH
Name WILLMAR MUNI
Region United States
Timezone America/Chicago (UTC-5.0)
Plans Departing 5
Arriving 4
Stats Elevation 1,126 ft / 343 m (AMSL)
Location 45.117722° -95.130417°
Runways 2
Magnetic Variation 1.678° E
Sunrise 2018-05-24 10:43:38 UTC / 2018-05-24 05:43:38 Local
Sunset 2018-05-25 01:54:01 UTC / 2018-05-24 20:54:01 Local
Advertisement - Login to hide

Runways

ID Width Length Bearing (true) Bearing (mag) Surface Threshold Offset Overrun Length
03 300 ft / 91 m 3,003 ft / 915 m 32.78° 31.10° Dirt 0 ft / 0 m 0 ft / 0 m
13 100 ft / 30 m 5,505 ft / 1,678 m 132.78° 131.10° Asphalt 0 ft / 0 m 200 ft / 61 m
21 300 ft / 91 m 3,003 ft / 915 m 212.79° 211.11° Dirt 0 ft / 0 m 0 ft / 0 m
31 100 ft / 30 m 5,505 ft / 1,678 m 312.79° 311.11° Asphalt 0 ft / 0 m 200 ft / 61 m

Map

Weather


0- 5 10 15 20 25 30 35+ Temperature / ° C

Clouds and Precipitation
Forecast for 2018-05-25 00:00 UTC. Updated 35 minutes ago

Ground ~20,000 ft ~40,000 ft Winds

METAR

KBDH 242335Z AUTO 15011KT 10SM CLR 27/16 A2985 RMK AO2

TAF

Not found

Frequencies

Unicom 122.80 MHz UNICOM
Warning: Do not use this data for real-world aviation or navigation. No guarantee of current accuracy is given.